Hagen — V2PB3 — position and weather

sailwx.info

Track history (hours):
 
Tides and Currents Weather Stations Pressure Air Temp Water Temp Dewpoint Dewpoint Depression Visibility Wind Speed Wind Dir Waves Ship Positions

Hagen

Last reported at 2014-Oct-30 18:33 UTC. Time now 2014-Oct-30 19:04 UTC.
Position N 44°07' E 009°50'.

Length 89 m; draft 5.4 m.

Type: Cargo ship. MMSI: 304010898.

Date/timePositionNaut miles runAvg speedWind from/ knotsBaromVisibWave heightAir tempDewpointWater temp
2014-Oct-30 18:33N 44°07' E 009°50'0 0.0
2014-Oct-30 17:33N 44°07' E 009°50'0 0.0
2014-Oct-30 16:33N 44°07' E 009°50'0 0.0
2014-Oct-30 15:33N 44°07' E 009°50'0 0.0
2014-Oct-30 14:33N 44°07' E 009°50'0 0.0
2014-Oct-30 13:33N 44°07' E 009°50'0 0.0
2014-Oct-30 12:33N 44°07' E 009°50'0 0.0
2014-Oct-30 11:33N 44°07' E 009°50'0 0.0
2014-Oct-30 10:33N 44°07' E 009°50'0 0.0
2014-Oct-30 09:33N 44°07' E 009°50'0 0.0
2014-Oct-30 08:33N 44°07' E 009°50'0 0.1
2014-Oct-30 07:34N 44°06' E 009°50'7 6.9
2014-Oct-30 06:33N 44°00' E 009°55'9 9.4
2014-Oct-30 05:33N 43°55' E 009°44'10 9.8
2014-Oct-30 04:33N 43°47' E 009°35'6 6.4
2014-Oct-30 03:33N 43°43' E 009°29'5 5.0
2014-Oct-30 02:33N 43°39' E 009°24'7 7.5
2014-Oct-30 01:33N 43°34' E 009°17'8 7.5
2014-Oct-30 00:33N 43°28' E 009°10'8 7.8
2014-Oct-29 23:33N 43°22' E 009°03'8 7.8
2014-Oct-29 22:33N 43°17' E 008°56'341 9.7
2014-Oct-28 11:28N 39°15' E 003°36'910.0
2014-Oct-28 10:33N 39°11' E 003°26'1010.0
2014-Oct-28 09:33N 39°07' E 003°14'1010.0
2014-Oct-28 08:33N 39°01' E 003°03'9 9.4
2014-Oct-28 07:33N 38°54' E 002°56'1010.3
2014-Oct-28 06:33N 38°48' E 002°45'1010.1
2014-Oct-28 05:33N 38°43' E 002°34'1010.2
2014-Oct-28 04:33N 38°37' E 002°23'187 9.8
2014-Oct-27 09:33N 36°59' W 000°59'218 9.5
2014-Oct-26 10:33N 36°04' W 005°21'5 0.1
2014-Oct-24 20:33N 36°09' W 005°24'7 7.5
2014-Oct-24 19:33N 36°02' W 005°20'231 9.2
2014-Oct-23 18:24N 37°23' W 000°49'1210.1
2014-Oct-23 17:12N 37°31' W 000°38'7 9.7
2014-Oct-23 16:27N 37°37' W 000°32'9 9.5
2014-Oct-23 15:33N 37°45' W 000°30'9 9.2
2014-Oct-23 14:33N 37°54' W 000°28'9 9.3
2014-Oct-23 13:33N 38°03' W 000°25'12 8.8
2014-Oct-23 12:12N 38°15' W 000°26'7 0.2
2014-Oct-22 02:33N 38°08' W 000°24'8 8.5
2014-Oct-22 01:33N 37°59' W 000°25'8 8.3
2014-Oct-22 00:33N 37°51' W 000°27'8 8.5
2014-Oct-21 23:33N 37°42' W 000°28'8 8.2
2014-Oct-21 22:33N 37°34' W 000°30'8 8.4
2014-Oct-21 21:32N 37°28' W 000°38'9 8.6
2014-Oct-21 20:33N 37°23' W 000°46'9 8.7
2014-Oct-21 19:32N 37°17' W 000°54'9 9.0
2014-Oct-21 18:29N 37°10' W 001°02'  
Track history (hours):
 
Tides and Currents Weather Stations Pressure Air Temp Water Temp Dewpoint Dewpoint Depression Visibility Wind Speed Wind Dir Waves Ship Positions

Hagen

Last reported at 2014-Oct-30 18:33 UTC. Time now 2014-Oct-30 19:04 UTC.
Position N 44°07' E 009°50'.

Length 89 m; draft 5.4 m.

Type: Cargo ship. MMSI: 304010898.

Date/timePositionNaut miles runAvg speedWind from/ knotsBaromVisibWave heightAir tempDewpointWater temp
2014-Oct-30 18:33N 44°07' E 009°50'0 0.0
2014-Oct-30 17:33N 44°07' E 009°50'0 0.0
2014-Oct-30 16:33N 44°07' E 009°50'0 0.0
2014-Oct-30 15:33N 44°07' E 009°50'0 0.0
2014-Oct-30 14:33N 44°07' E 009°50'0 0.0
2014-Oct-30 13:33N 44°07' E 009°50'0 0.0
2014-Oct-30 12:33N 44°07' E 009°50'0 0.0
2014-Oct-30 11:33N 44°07' E 009°50'0 0.0
2014-Oct-30 10:33N 44°07' E 009°50'0 0.0
2014-Oct-30 09:33N 44°07' E 009°50'0 0.0
2014-Oct-30 08:33N 44°07' E 009°50'0 0.1
2014-Oct-30 07:34N 44°06' E 009°50'7 6.9
2014-Oct-30 06:33N 44°00' E 009°55'9 9.4
2014-Oct-30 05:33N 43°55' E 009°44'10 9.8
2014-Oct-30 04:33N 43°47' E 009°35'6 6.4
2014-Oct-30 03:33N 43°43' E 009°29'5 5.0
2014-Oct-30 02:33N 43°39' E 009°24'7 7.5
2014-Oct-30 01:33N 43°34' E 009°17'8 7.5
2014-Oct-30 00:33N 43°28' E 009°10'8 7.8
2014-Oct-29 23:33N 43°22' E 009°03'8 7.8
2014-Oct-29 22:33N 43°17' E 008°56'341 9.7
2014-Oct-28 11:28N 39°15' E 003°36'910.0
2014-Oct-28 10:33N 39°11' E 003°26'1010.0
2014-Oct-28 09:33N 39°07' E 003°14'1010.0
2014-Oct-28 08:33N 39°01' E 003°03'9 9.4
2014-Oct-28 07:33N 38°54' E 002°56'1010.3
2014-Oct-28 06:33N 38°48' E 002°45'1010.1
2014-Oct-28 05:33N 38°43' E 002°34'1010.2
2014-Oct-28 04:33N 38°37' E 002°23'187 9.8
2014-Oct-27 09:33N 36°59' W 000°59'218 9.5
2014-Oct-26 10:33N 36°04' W 005°21'5 0.1
2014-Oct-24 20:33N 36°09' W 005°24'7 7.5
2014-Oct-24 19:33N 36°02' W 005°20'231 9.2
2014-Oct-23 18:24N 37°23' W 000°49'1210.1
2014-Oct-23 17:12N 37°31' W 000°38'7 9.7
2014-Oct-23 16:27N 37°37' W 000°32'9 9.5
2014-Oct-23 15:33N 37°45' W 000°30'9 9.2
2014-Oct-23 14:33N 37°54' W 000°28'9 9.3
2014-Oct-23 13:33N 38°03' W 000°25'12 8.8
2014-Oct-23 12:12N 38°15' W 000°26'7 0.2
2014-Oct-22 02:33N 38°08' W 000°24'8 8.5
2014-Oct-22 01:33N 37°59' W 000°25'8 8.3
2014-Oct-22 00:33N 37°51' W 000°27'8 8.5
2014-Oct-21 23:33N 37°42' W 000°28'8 8.2
2014-Oct-21 22:33N 37°34' W 000°30'8 8.4
2014-Oct-21 21:32N 37°28' W 000°38'9 8.6
2014-Oct-21 20:33N 37°23' W 000°46'9 8.7
2014-Oct-21 19:32N 37°17' W 000°54'9 9.0
2014-Oct-21 18:29N 37°10' W 001°02'  

Dump ship's entire track history